createdAt,value
2023-04-19T00:01:54.248Z,11.90
2023-04-19T00:04:22.350Z,12.25
2023-04-19T00:06:51.998Z,7.15
2023-04-19T00:09:20.336Z,8.90
2023-04-19T00:11:48.375Z,8.77
2023-04-19T00:14:16.619Z,9.40
2023-04-19T00:16:45.146Z,9.60
2023-04-19T00:19:13.092Z,6.85
2023-04-19T00:21:41.394Z,10.02
2023-04-19T00:24:09.459Z,9.85
2023-04-19T00:26:37.461Z,8.38
2023-04-19T00:29:05.770Z,11.10
2023-04-19T00:31:34.639Z,9.13
2023-04-19T00:34:03.210Z,10.73
2023-04-19T00:36:31.439Z,7.68
2023-04-19T00:38:59.336Z,8.77
2023-04-19T00:41:27.142Z,9.90
2023-04-19T00:43:55.423Z,10.52
2023-04-19T00:46:23.813Z,9.20
2023-04-19T00:48:52.330Z,9.73
2023-04-19T00:51:20.701Z,7.38
2023-04-19T00:53:49.621Z,8.40
2023-04-19T00:56:24.201Z,6.75
2023-04-19T00:58:55.751Z,8.35
2023-04-19T01:01:23.728Z,10.95
2023-04-19T01:03:51.940Z,8.90
2023-04-19T01:06:22.244Z,12.23
2023-04-19T01:08:50.269Z,8.43
2023-04-19T01:11:18.212Z,11.30
2023-04-19T01:13:46.387Z,9.52
2023-04-19T01:16:14.465Z,11.77
2023-04-19T01:18:45.658Z,7.53
2023-04-19T01:21:13.620Z,10.00
2023-04-19T01:23:41.635Z,10.07
2023-04-19T01:26:09.573Z,11.50
2023-04-19T01:28:39.444Z,9.07
2023-04-19T01:31:07.454Z,8.68
2023-04-19T01:33:35.521Z,7.88
2023-04-19T01:36:04.507Z,10.07
2023-04-19T01:38:32.553Z,9.70
2023-04-19T01:41:00.379Z,8.77
2023-04-19T01:43:28.375Z,9.13
2023-04-19T01:45:56.835Z,12.80
2023-04-19T01:48:24.664Z,10.30
2023-04-19T01:50:52.966Z,9.73
2023-04-19T01:53:20.903Z,11.30
2023-04-19T01:55:50.847Z,11.50
2023-04-19T01:58:18.820Z,11.98
2023-04-19T02:00:47.124Z,11.02
2023-04-19T02:03:15.349Z,9.65
2023-04-19T02:05:44.122Z,10.02
2023-04-19T02:08:12.067Z,10.48
2023-04-19T02:10:39.918Z,12.85
2023-04-19T02:13:07.988Z,9.25
2023-04-19T02:15:37.977Z,11.15
2023-04-19T02:18:07.084Z,14.93
2023-04-19T02:20:35.459Z,13.00
2023-04-19T02:23:04.812Z,11.35
2023-04-19T02:25:32.723Z,12.32
2023-04-19T02:28:00.745Z,11.38
2023-04-19T02:30:28.592Z,11.10
2023-04-19T02:32:56.670Z,10.10
2023-04-19T02:35:27.411Z,11.60
2023-04-19T02:37:55.290Z,10.75
2023-04-19T02:40:25.678Z,11.25
2023-04-19T02:42:53.827Z,9.40
2023-04-19T02:45:23.171Z,12.80
2023-04-19T02:47:51.130Z,12.70
2023-04-19T02:50:19.876Z,9.93
2023-04-19T02:52:51.361Z,9.07
2023-04-19T02:55:21.056Z,12.80
2023-04-19T02:57:55.022Z,12.65
2023-04-19T03:00:23.216Z,10.13
2023-04-19T03:03:04.866Z,10.55
2023-04-19T03:05:34.381Z,14.30
2023-04-19T03:08:02.282Z,11.27
2023-04-19T03:10:30.749Z,10.63
2023-04-19T03:12:58.609Z,13.15
2023-04-19T03:15:27.093Z,12.48
2023-04-19T03:17:55.273Z,14.50
2023-04-19T03:20:23.839Z,12.88
2023-04-19T03:22:51.838Z,10.27
2023-04-19T03:25:20.776Z,11.48
2023-04-19T03:27:57.113Z,11.88
2023-04-19T03:30:46.332Z,10.50
2023-04-19T03:33:14.236Z,11.02
2023-04-19T03:35:44.852Z,8.73
2023-04-19T03:38:13.201Z,11.05
2023-04-19T03:40:41.221Z,11.85
2023-04-19T03:43:12.041Z,14.77
2023-04-19T03:45:40.860Z,10.80
2023-04-19T03:48:09.163Z,12.43
2023-04-19T03:50:37.637Z,9.70
2023-04-19T03:53:06.360Z,11.07
2023-04-19T03:55:34.295Z,10.98
2023-04-19T03:58:02.751Z,10.73
2023-04-19T04:00:41.475Z,11.95
2023-04-19T04:03:09.840Z,10.65
2023-04-19T04:05:38.981Z,12.07
2023-04-19T04:08:07.331Z,12.25
2023-04-19T04:10:35.568Z,11.57
2023-04-19T04:13:03.480Z,11.18
2023-04-19T04:15:42.912Z,12.18
2023-04-19T04:18:13.391Z,11.90
2023-04-19T04:20:43.475Z,11.52
2023-04-19T04:23:14.539Z,13.15
2023-04-19T04:25:55.979Z,12.95
2023-04-19T04:28:24.393Z,12.23
2023-04-19T04:30:52.401Z,11.40
2023-04-19T04:33:20.578Z,15.02
2023-04-19T04:35:49.219Z,9.38
2023-04-19T04:38:25.121Z,12.98
2023-04-19T04:40:56.346Z,10.23
2023-04-19T04:43:29.083Z,14.65
2023-04-19T04:45:58.331Z,12.15
2023-04-19T04:48:31.788Z,9.95
2023-04-19T04:51:00.037Z,13.93
2023-04-19T04:53:29.762Z,10.23
2023-04-19T04:56:00.132Z,12.05
2023-04-19T04:58:28.303Z,9.57
2023-04-19T05:01:07.744Z,11.70
2023-04-19T05:03:40.802Z,10.73
2023-04-19T05:06:14.083Z,11.80
2023-04-19T05:08:42.587Z,11.32
2023-04-19T05:11:17.944Z,10.63
2023-04-19T05:13:46.789Z,10.57
2023-04-19T05:16:15.643Z,11.73
2023-04-19T05:18:46.809Z,11.73
2023-04-19T05:21:15.127Z,10.85
2023-04-19T05:23:43.744Z,11.35
2023-04-19T05:26:15.728Z,10.05
2023-04-19T05:28:44.991Z,9.98
2023-04-19T05:31:30.489Z,10.00
2023-04-19T05:34:21.987Z,10.63
2023-04-19T05:36:51.883Z,12.77
2023-04-19T05:39:19.823Z,10.65
2023-04-19T05:41:48.883Z,11.20
2023-04-19T05:44:17.191Z,9.32
2023-04-19T05:46:45.347Z,10.80
2023-04-19T05:52:17.180Z,10.00
2023-04-19T05:54:51.818Z,12.90
2023-04-19T05:57:19.987Z,13.40
2023-04-19T05:59:48.101Z,9.32
2023-04-19T06:02:20.857Z,11.93
2023-04-19T06:04:49.627Z,13.75
2023-04-19T06:07:30.969Z,12.73
2023-04-19T06:10:01.059Z,13.68
2023-04-19T06:12:29.092Z,10.82
2023-04-19T06:14:57.190Z,13.57
2023-04-19T06:17:26.543Z,12.55
2023-04-19T06:19:55.613Z,10.85
2023-04-19T06:22:24.046Z,10.52
2023-04-19T06:24:52.553Z,11.85
2023-04-19T06:27:20.436Z,9.48
2023-04-19T06:29:50.543Z,11.52
2023-04-19T06:32:19.448Z,10.43
2023-04-19T06:34:47.785Z,11.25
2023-04-19T06:37:15.646Z,10.82
2023-04-19T06:39:43.941Z,10.23
2023-04-19T06:42:12.577Z,12.20
2023-04-19T06:44:40.563Z,13.30
2023-04-19T06:47:09.785Z,13.18
2023-04-19T06:49:38.091Z,11.38
2023-04-19T06:52:06.313Z,12.75
2023-04-19T06:54:34.351Z,9.63
2023-04-19T06:57:02.757Z,11.85
2023-04-19T06:59:32.385Z,11.05
2023-04-19T07:02:00.497Z,11.95
2023-04-19T07:04:28.518Z,13.98
2023-04-19T07:06:57.626Z,9.98
2023-04-19T07:09:25.673Z,12.48
2023-04-19T07:11:53.815Z,10.15
2023-04-19T07:14:21.901Z,13.32
2023-04-19T07:16:50.951Z,11.98
2023-04-19T07:19:21.131Z,12.18
2023-04-19T07:21:49.189Z,12.05
2023-04-19T07:24:17.890Z,13.00
2023-04-19T07:26:46.079Z,10.40
2023-04-19T07:29:14.851Z,10.85
2023-04-19T07:31:43.304Z,11.75
2023-04-19T07:34:11.226Z,9.95
2023-04-19T07:36:39.164Z,10.98
2023-04-19T07:39:07.431Z,11.43
2023-04-19T07:41:36.282Z,9.48
2023-04-19T07:44:04.557Z,10.57
2023-04-19T07:46:32.666Z,13.30
2023-04-19T07:49:00.632Z,12.10
2023-04-19T07:51:28.900Z,12.60
2023-04-19T07:53:57.209Z,11.93
2023-04-19T07:56:27.035Z,10.77
2023-04-19T07:59:06.956Z,12.55
2023-04-19T08:01:37.359Z,14.00
2023-04-19T08:04:05.901Z,11.45
2023-04-19T08:06:34.766Z,9.70
2023-04-19T08:09:03.534Z,15.15
2023-04-19T08:11:32.116Z,16.33
2023-04-19T08:14:09.325Z,10.45
2023-04-19T08:17:19.595Z,10.20
2023-04-19T08:19:32.177Z,10.77
2023-04-19T08:22:00.434Z,12.35
2023-04-19T08:24:28.409Z,13.10
2023-04-19T08:26:58.208Z,10.93
2023-04-19T08:29:27.824Z,12.38
2023-04-19T08:31:55.816Z,10.98
2023-04-19T08:34:23.843Z,12.48
2023-04-19T08:37:03.318Z,12.00
2023-04-19T08:39:34.623Z,11.40
2023-04-19T08:42:13.341Z,11.50
2023-04-19T08:47:29.589Z,15.15
2023-04-19T08:50:20.312Z,11.77
2023-04-19T08:52:58.707Z,10.30
2023-04-19T08:55:30.093Z,13.63
2023-04-19T08:57:58.944Z,11.13
2023-04-19T09:00:27.040Z,16.20
2023-04-19T09:02:56.117Z,19.15
2023-04-19T09:05:26.264Z,13.55
2023-04-19T09:07:54.576Z,13.50
2023-04-19T09:10:22.760Z,12.85
2023-04-19T09:13:03.209Z,15.07
2023-04-19T09:15:40.345Z,14.65
2023-04-19T09:18:10.503Z,12.05
2023-04-19T09:20:41.178Z,13.77
2023-04-19T09:23:15.590Z,11.15
2023-04-19T09:26:21.918Z,10.77
2023-04-19T09:29:06.595Z,12.45
2023-04-19T09:34:14.821Z,13.63
2023-04-19T09:36:43.134Z,12.82
2023-04-19T09:39:11.562Z,17.42
2023-04-19T09:41:55.700Z,13.13
2023-04-19T09:46:56.066Z,14.38
2023-04-19T09:49:37.363Z,15.73
2023-04-19T09:52:15.282Z,15.50
2023-04-19T09:54:44.283Z,13.38
2023-04-19T09:57:12.715Z,11.93
2023-04-19T09:59:40.833Z,11.57
2023-04-19T10:02:13.143Z,11.43
2023-04-19T10:04:59.753Z,11.75
2023-04-19T10:07:32.855Z,15.82
2023-04-19T10:10:15.813Z,13.60
2023-04-19T10:15:24.494Z,11.77
2023-04-19T10:17:52.786Z,12.73
2023-04-19T10:20:32.953Z,10.93
2023-04-19T10:23:01.435Z,15.43
2023-04-19T10:25:31.090Z,13.55
2023-04-19T10:27:59.330Z,12.73
2023-04-19T10:30:27.622Z,10.45
2023-04-19T10:32:59.433Z,9.90
2023-04-19T10:35:37.700Z,10.63
2023-04-19T10:38:19.753Z,13.90
2023-04-19T10:40:56.742Z,11.55
2023-04-19T10:43:26.971Z,17.17
2023-04-19T10:45:55.957Z,11.85
2023-04-19T10:48:31.095Z,10.70
2023-04-19T10:51:16.701Z,11.02
2023-04-19T10:54:10.187Z,10.27
2023-04-19T10:56:39.479Z,12.10
2023-04-19T10:59:13.666Z,13.93
2023-04-19T11:01:45.777Z,16.10
2023-04-19T11:04:20.316Z,11.93
2023-04-19T11:06:54.218Z,12.77
2023-04-19T11:09:42.492Z,12.05
2023-04-19T11:12:16.235Z,12.95
2023-04-19T11:14:59.993Z,11.63
2023-04-19T11:17:32.104Z,12.55
2023-04-19T11:20:12.208Z,12.10
2023-04-19T11:22:42.837Z,11.30
2023-04-19T11:25:16.774Z,9.83
2023-04-19T11:27:49.622Z,11.77
2023-04-19T11:30:23.086Z,10.60
2023-04-19T11:32:54.356Z,11.02
2023-04-19T11:35:30.752Z,11.02
2023-04-19T11:38:00.041Z,14.65
2023-04-19T11:40:28.516Z,9.80
2023-04-19T11:43:06.527Z,10.35
2023-04-19T11:45:39.746Z,10.55
2023-04-19T11:48:18.126Z,9.50
2023-04-19T11:50:49.584Z,7.30
2023-04-19T11:53:22.995Z,5.93
2023-04-19T11:55:57.670Z,5.47
2023-04-19T11:58:44.852Z,4.93
2023-04-19T12:01:16.798Z,7.93
2023-04-19T12:03:56.914Z,5.07
2023-04-19T12:06:33.505Z,4.18
2023-04-19T12:09:08.372Z,3.72
2023-04-19T12:11:45.930Z,5.18
2023-04-19T12:14:17.505Z,9.75
2023-04-19T12:16:46.607Z,4.53
2023-04-19T12:19:20.826Z,3.58
2023-04-19T12:21:48.880Z,4.50
2023-04-19T12:24:17.553Z,8.90
2023-04-19T12:27:00.597Z,2.45
2023-04-19T12:29:30.743Z,1.60
2023-04-19T12:31:58.753Z,2.33
2023-04-19T12:34:26.796Z,3.08
2023-04-19T12:36:56.603Z,2.67
2023-04-19T12:39:24.932Z,5.55
2023-04-19T12:41:54.482Z,1.85
2023-04-19T12:44:22.568Z,2.63
2023-04-19T12:46:50.549Z,7.05
2023-04-19T12:49:22.161Z,2.92
2023-04-19T12:51:50.408Z,2.95
2023-04-19T12:54:18.419Z,4.20
2023-04-19T12:56:46.560Z,4.07
2023-04-19T12:59:14.832Z,3.65
2023-04-19T13:01:43.094Z,5.30
2023-04-19T13:04:12.165Z,1.95
2023-04-19T13:06:40.968Z,6.00
2023-04-19T13:11:40.286Z,3.53
2023-04-19T13:14:08.357Z,2.75
2023-04-19T13:16:36.533Z,3.10
2023-04-19T13:19:04.690Z,2.03
2023-04-19T13:21:32.632Z,5.15
2023-04-19T13:24:00.598Z,3.28
2023-04-19T13:26:28.832Z,5.60
2023-04-19T13:28:56.913Z,6.35
2023-04-19T13:31:25.513Z,6.30
2023-04-19T13:33:54.418Z,6.65
2023-04-19T13:36:22.366Z,4.88
2023-04-19T13:38:50.345Z,7.03
2023-04-19T13:41:18.611Z,3.35
2023-04-19T13:43:47.414Z,3.85
2023-04-19T13:46:15.680Z,3.17
2023-04-19T13:48:43.932Z,2.60
2023-04-19T13:51:13.104Z,3.47
2023-04-19T13:53:42.726Z,3.28
2023-04-19T13:56:11.448Z,3.97
2023-04-19T13:58:39.459Z,4.70
2023-04-19T14:01:08.245Z,3.10
2023-04-19T14:03:37.031Z,3.17
2023-04-19T14:06:05.412Z,3.05
2023-04-19T14:08:33.358Z,2.50
2023-04-19T14:11:01.639Z,3.22
2023-04-19T14:13:29.523Z,3.10
2023-04-19T14:15:57.895Z,3.22
2023-04-19T14:18:26.649Z,3.28
2023-04-19T14:20:55.534Z,2.88
2023-04-19T14:23:23.781Z,4.75
2023-04-19T14:25:51.902Z,2.50
2023-04-19T14:28:19.925Z,5.75
2023-04-19T14:30:48.175Z,7.57
2023-04-19T14:33:16.554Z,5.28
2023-04-19T14:35:45.058Z,4.63
2023-04-19T14:38:13.048Z,4.15
2023-04-19T14:40:41.322Z,11.93
2023-04-19T14:43:11.581Z,3.78
2023-04-19T14:45:41.095Z,2.55
2023-04-19T14:48:09.491Z,6.63
2023-04-19T14:50:38.305Z,4.00
2023-04-19T14:53:07.557Z,5.28
2023-04-19T14:55:39.059Z,4.85
2023-04-19T14:58:08.679Z,7.40
2023-04-19T15:00:37.952Z,5.93
2023-04-19T15:03:07.489Z,3.75
2023-04-19T15:05:42.586Z,9.15
2023-04-19T15:08:29.040Z,5.25
2023-04-19T15:10:58.273Z,3.60
2023-04-19T15:13:27.085Z,4.72
2023-04-19T15:15:55.416Z,4.13
2023-04-19T15:18:23.654Z,4.10
2023-04-19T15:20:51.818Z,5.85
2023-04-19T15:23:25.335Z,6.95
2023-04-19T15:25:53.694Z,4.45
2023-04-19T15:28:23.622Z,3.63
2023-04-19T15:31:01.678Z,4.65
2023-04-19T15:33:30.336Z,4.57
2023-04-19T15:35:59.448Z,4.65
2023-04-19T15:38:31.193Z,4.75
2023-04-19T15:43:28.713Z,4.65
2023-04-19T15:45:56.745Z,3.35
2023-04-19T15:48:24.908Z,3.80
2023-04-19T15:50:52.877Z,4.18
2023-04-19T15:53:21.032Z,9.02
2023-04-19T15:55:49.238Z,2.85
2023-04-19T15:58:17.236Z,5.53
2023-04-19T16:00:45.740Z,3.08
2023-04-19T16:03:14.046Z,6.38
2023-04-19T16:05:42.301Z,3.97
2023-04-19T16:08:12.025Z,3.53
2023-04-19T16:10:40.294Z,3.55
2023-04-19T16:13:08.285Z,4.15
2023-04-19T16:15:36.835Z,4.75
2023-04-19T16:18:05.037Z,4.18
2023-04-19T16:20:33.159Z,3.33
2023-04-19T16:23:03.739Z,4.05
2023-04-19T16:25:32.597Z,4.30
2023-04-19T16:28:01.367Z,4.18
2023-04-19T16:30:29.598Z,4.75
2023-04-19T16:32:59.016Z,6.28
2023-04-19T16:35:27.341Z,5.05
2023-04-19T16:37:57.750Z,4.40
2023-04-19T16:40:26.285Z,5.05
2023-04-19T16:42:54.630Z,5.45
2023-04-19T16:45:22.729Z,5.28
2023-04-19T16:47:50.847Z,9.75
2023-04-19T16:50:20.490Z,4.22
2023-04-19T16:52:48.892Z,3.58
2023-04-19T16:55:16.924Z,7.82
2023-04-19T16:57:45.096Z,6.60
2023-04-19T17:00:14.363Z,5.35
2023-04-19T17:02:42.404Z,7.18
2023-04-19T17:05:12.731Z,5.13
2023-04-19T17:07:40.909Z,5.20
2023-04-19T17:10:09.517Z,7.18
2023-04-19T17:12:37.784Z,4.78
2023-04-19T17:15:06.524Z,6.72
2023-04-19T17:17:34.626Z,5.18
2023-04-19T17:20:04.385Z,5.88
2023-04-19T17:22:33.264Z,5.78
2023-04-19T17:25:01.164Z,5.13
2023-04-19T17:27:29.277Z,8.48
2023-04-19T17:29:57.232Z,5.85
2023-04-19T17:32:25.170Z,10.00
2023-04-19T17:34:53.165Z,5.55
2023-04-19T17:37:21.482Z,9.20
2023-04-19T17:39:49.531Z,7.32
2023-04-19T17:42:17.592Z,7.03
2023-04-19T17:44:46.062Z,9.27
2023-04-19T17:47:13.956Z,8.02
2023-04-19T17:49:46.276Z,14.85
2023-04-19T17:52:14.717Z,5.35
2023-04-19T17:54:42.813Z,3.92
2023-04-19T17:57:10.852Z,10.85
2023-04-19T17:59:39.034Z,6.28
2023-04-19T18:02:09.673Z,7.78
2023-04-19T18:04:39.558Z,5.53
2023-04-19T18:07:08.027Z,5.40
2023-04-19T18:09:36.988Z,5.53
2023-04-19T18:12:05.934Z,9.02
2023-04-19T18:14:36.109Z,10.80
2023-04-19T18:17:05.663Z,5.57
2023-04-19T18:19:34.623Z,8.65
2023-04-19T18:22:03.121Z,7.82
2023-04-19T18:24:32.453Z,6.68
2023-04-19T18:27:03.951Z,8.45
2023-04-19T18:29:31.882Z,8.20
2023-04-19T18:32:18.740Z,7.20
2023-04-19T18:34:47.468Z,9.45
2023-04-19T18:37:17.217Z,9.90
2023-04-19T18:39:45.998Z,10.60
2023-04-19T18:42:14.063Z,11.45
2023-04-19T18:47:12.827Z,8.77
2023-04-19T18:49:42.542Z,10.00
2023-04-19T18:52:15.130Z,11.30
2023-04-19T18:54:43.566Z,8.15
2023-04-19T18:57:23.289Z,10.27
2023-04-19T18:59:57.232Z,9.35
2023-04-19T19:02:27.543Z,9.07
2023-04-19T19:05:00.621Z,12.35
2023-04-19T19:10:10.741Z,9.85
2023-04-19T19:12:46.083Z,13.27
2023-04-19T19:15:14.849Z,12.35
2023-04-19T19:17:49.364Z,12.30
2023-04-19T19:20:19.932Z,11.95
2023-04-19T19:22:48.603Z,13.95
2023-04-19T19:25:16.917Z,10.07
2023-04-19T19:28:02.863Z,13.60
2023-04-19T19:30:40.109Z,11.85
2023-04-19T19:33:08.547Z,12.10
2023-04-19T19:35:40.087Z,11.65
2023-04-19T19:38:09.646Z,11.00
2023-04-19T19:40:53.548Z,10.50
2023-04-19T19:43:26.838Z,13.15
2023-04-19T19:45:54.814Z,12.65
2023-04-19T19:48:22.876Z,10.60
2023-04-19T19:53:22.308Z,11.82
2023-04-19T19:55:52.692Z,13.73
2023-04-19T19:58:39.381Z,13.70
2023-04-19T20:01:10.366Z,11.65
2023-04-19T20:03:39.418Z,12.65
2023-04-19T20:08:44.505Z,13.20
2023-04-19T20:11:14.009Z,11.60
2023-04-19T20:13:42.276Z,14.15
2023-04-19T20:16:10.985Z,14.77
2023-04-19T20:18:39.484Z,15.07
2023-04-19T20:21:08.477Z,12.98
2023-04-19T20:23:39.830Z,14.63
2023-04-19T20:26:08.187Z,16.23
2023-04-19T20:28:36.894Z,16.35
2023-04-19T20:31:05.312Z,19.02
2023-04-19T20:33:34.033Z,17.65
2023-04-19T20:36:03.927Z,14.98
2023-04-19T20:38:32.854Z,17.65
2023-04-19T20:41:01.346Z,15.38
2023-04-19T20:43:29.804Z,16.73
2023-04-19T20:45:58.119Z,18.42
2023-04-19T20:48:26.311Z,18.77
2023-04-19T20:50:54.439Z,18.15
2023-04-19T20:53:22.578Z,15.02
2023-04-19T20:55:51.629Z,18.40
2023-04-19T20:58:20.190Z,16.50
2023-04-19T21:00:50.151Z,18.52
2023-04-19T21:03:18.161Z,20.45
2023-04-19T21:05:46.497Z,19.00
2023-04-19T21:08:16.231Z,16.00
2023-04-19T21:10:44.315Z,17.30
2023-04-19T21:13:12.275Z,15.88
2023-04-19T21:15:40.885Z,18.58
2023-04-19T21:18:09.070Z,15.55
2023-04-19T21:20:38.353Z,15.77
2023-04-19T21:23:06.929Z,17.90
2023-04-19T21:25:35.478Z,18.00
2023-04-19T21:28:03.985Z,18.90
2023-04-19T21:30:32.345Z,16.35
2023-04-19T21:33:00.605Z,19.23
2023-04-19T21:35:28.685Z,16.92
2023-04-19T21:37:57.612Z,17.27
2023-04-19T21:40:25.935Z,16.33
2023-04-19T21:42:54.141Z,17.60
2023-04-19T21:45:22.554Z,16.73
2023-04-19T21:47:51.523Z,20.20
2023-04-19T21:50:19.809Z,16.55
2023-04-19T21:52:47.955Z,14.63
2023-04-19T21:55:15.966Z,13.13
2023-04-19T21:57:44.501Z,15.43
2023-04-19T22:00:13.402Z,12.05
2023-04-19T22:02:41.607Z,12.98
2023-04-19T22:05:10.009Z,12.55
2023-04-19T22:07:40.271Z,13.05
2023-04-19T22:10:09.066Z,16.15
2023-04-19T22:12:45.114Z,13.68
2023-04-19T22:15:19.871Z,12.88
2023-04-19T22:17:48.224Z,16.38
2023-04-19T22:20:16.134Z,16.13
2023-04-19T22:22:44.431Z,14.25
2023-04-19T22:25:12.840Z,14.52
2023-04-19T22:27:40.762Z,14.77
2023-04-19T22:30:09.109Z,15.70
2023-04-19T22:32:37.280Z,15.38
2023-04-19T22:35:05.891Z,15.73
2023-04-19T22:37:33.857Z,18.38
2023-04-19T22:40:02.292Z,18.85
2023-04-19T22:42:30.624Z,15.02
2023-04-19T22:44:58.480Z,16.13
2023-04-19T22:47:26.669Z,19.50
2023-04-19T22:49:54.877Z,15.85
2023-04-19T22:52:23.053Z,14.55
2023-04-19T22:54:51.226Z,15.13
2023-04-19T22:57:19.097Z,19.42
2023-04-19T22:59:46.977Z,15.35
2023-04-19T23:02:15.099Z,15.85
2023-04-19T23:04:44.819Z,17.98
2023-04-19T23:07:13.405Z,13.57
2023-04-19T23:09:41.563Z,17.35
2023-04-19T23:12:10.204Z,25.20
2023-04-19T23:14:38.944Z,23.23
2023-04-19T23:17:07.544Z,14.07
2023-04-19T23:19:37.626Z,14.30
2023-04-19T23:22:05.797Z,16.20
2023-04-19T23:24:36.619Z,19.00
2023-04-19T23:27:05.219Z,21.77
2023-04-19T23:29:33.079Z,14.27
2023-04-19T23:32:04.352Z,15.32
2023-04-19T23:34:32.458Z,12.13
2023-04-19T23:37:00.482Z,16.00
2023-04-19T23:39:28.632Z,14.57
2023-04-19T23:41:57.997Z,12.07
2023-04-19T23:44:27.419Z,12.98
2023-04-19T23:46:55.977Z,16.17
2023-04-19T23:49:23.977Z,19.08
2023-04-19T23:51:51.990Z,11.93
2023-04-19T23:54:22.612Z,15.48
2023-04-19T23:56:50.744Z,12.48
2023-04-19T23:59:19.276Z,13.88
